KPAH/PAH METAR and TAF weather

Enter ICAO airport designator
Station Type Date Time Source
KPAH METAR 2020/06/05 09:35 UTC NOAA

KPAH 050935Z AUTO 24005KT 2 1/2SM BR CLR 20/19 A2987 RMK AO2 T02000189


Station Type Date Time Source
KPAH Decoded METAR 2020/06/05 09:35 UTC NOAA

BARKLEY REGIONAL AIRPORT, KY, United States (KPAH) 37-03N 088-46W 118M
Jun 05, 2020 - 05:35 AM EDT / 2020.06.05 0935 UTC
Wind: from the WSW (240 degrees) at 6 MPH (5 KT):0
Visibility: 2 1/2 mile(s):0
Sky conditions: clear
Weather: mist
Temperature: 68.0 F (20.0 C)
Dew Point: 66.0 F (18.9 C)
Relative Humidity: 93%
Pressure (altimeter): 29.87 in. Hg (1011 hPa)
ob: KPAH 050935Z AUTO 24005KT 2 1/2SM BR CLR 20/19 A2987 RMK AO2 T02000189
cycle: 9

Station Type Date Time Source
KPAH TAF 2020/06/05 06:22 UTC NOAA

TAF KPAH 050520Z 0506/0606 00000KT 5SM BR FEW250
FM050700 00000KT 1 1/2SM BR SKC
TEMPO 0508/0512 1/2SM FG SCT002
FM051300 00000KT 4SM BR SKC
FM051400 18003KT P6SM SKC
FM051700 19005KT P6SM SCT030

Example: see airport list